Time;durP1;ratioP1;P1;durP2;ratioP2;P2;SDS_P1;SDS_P2;PMS_P1;PMS_P2;Temp;Humidity;BMP_temperature;BMP_pressure;BME280_temperature;BME280_humidity;BME280_pressure;Samples;Min_cycle;Max_cycle;Signal;HPM_P1;HPM_P2
2023/07/08 00:00:54;;;;;;;9.80;8.10;;;22.00;99.90;;;;;;5134796;28;20420;-49
2023/07/08 00:03:20;;;;;;;12.13;9.27;;;22.00;99.90;;;;;;5135585;28;20481;-47
2023/07/08 00:05:46;;;;;;;8.77;7.87;;;22.10;99.90;;;;;;5135875;28;20467;-49
2023/07/08 00:08:17;;;;;;;10.53;8.30;;;22.10;99.90;;;;;;5117425;28;20746;-47
2023/07/08 00:10:42;;;;;;;8.20;7.40;;;22.10;99.90;;;;;;5134688;28;20493;-48
2023/07/08 00:13:09;;;;;;;9.80;8.43;;;22.10;99.90;;;;;;5133047;28;20428;-49
2023/07/08 00:15:36;;;;;;;9.10;7.23;;;22.10;99.90;;;;;;5133117;28;20300;-49
2023/07/08 00:18:03;;;;;;;8.97;7.73;;;22.10;99.90;;;;;;5133659;28;20435;-50
2023/07/08 00:20:36;;;;;;;9.30;7.80;;;22.10;99.90;;;;;;5114286;28;20480;-48
2023/07/08 00:23:02;;;;;;;9.43;7.97;;;22.10;99.90;;;;;;5114579;28;20755;-50
2023/07/08 00:25:29;;;;;;;9.53;8.40;;;22.00;99.90;;;;;;5133205;28;20480;-47
2023/07/08 00:27:54;;;;;;;8.93;8.03;;;22.00;99.90;;;;;;5115708;28;20329;-47
2023/07/08 00:30:25;;;;;;;8.53;7.33;;;22.10;99.90;;;;;;5134121;28;20744;-50
2023/07/08 00:32:54;;;;;;;8.43;7.50;;;22.00;99.90;;;;;;5135008;28;20183;-52
2023/07/08 00:35:26;;;;;;;8.50;7.27;;;22.10;99.90;;;;;;5135452;27;20597;-45
2023/07/08 00:37:52;;;;;;;7.77;6.97;;;22.00;99.90;;;;;;5138685;27;20461;-46
2023/07/08 00:40:20;;;;;;;9.20;7.53;;;22.00;99.90;;;;;;5139770;27;20484;-52
2023/07/08 00:42:47;;;;;;;8.60;7.70;;;22.00;99.90;;;;;;5139964;27;20428;-51
2023/07/08 00:45:43;;;;;;;8.27;7.40;;;21.90;99.90;;;;;;5121430;27;20428;-49
2023/07/08 00:48:20;;;;;;;9.73;8.47;;;21.80;99.90;;;;;;5138668;27;20424;-48
2023/07/08 00:50:45;;;;;;;12.27;7.63;;;21.80;99.90;;;;;;5121059;27;20551;-48
2023/07/08 00:53:24;;;;;;;8.53;7.63;;;21.70;99.90;;;;;;5138783;27;20416;-46
2023/07/08 00:55:52;;;;;;;8.60;6.77;;;21.70;99.90;;;;;;5138785;27;20498;-48
2023/07/08 00:58:19;;;;;;;9.10;8.10;;;21.70;99.90;;;;;;5137415;27;20831;-48
2023/07/08 01:00:45;;;;;;;9.10;8.00;;;21.60;99.90;;;;;;5137982;27;20439;-48
2023/07/08 01:03:10;;;;;;;9.00;8.10;;;21.60;99.90;;;;;;5138094;27;20424;-45
2023/07/08 01:05:38;;;;;;;10.03;8.33;;;21.50;99.90;;;;;;5138058;27;20167;-49
2023/07/08 01:08:05;;;;;;;12.27;8.63;;;21.40;99.90;;;;;;5136937;27;20538;-47
2023/07/08 01:10:43;;;;;;;9.53;8.37;;;21.30;99.90;;;;;;5119300;27;20728;-47
2023/07/08 01:13:09;;;;;;;9.13;8.10;;;21.30;99.90;;;;;;5119764;27;20427;-47
2023/07/08 01:15:41;;;;;;;9.70;8.00;;;21.20;99.90;;;;;;5137112;27;20490;-52
2023/07/08 01:18:09;;;;;;;8.90;7.43;;;21.10;99.90;;;;;;5137410;27;20452;-52
2023/07/08 01:20:34;;;;;;;10.13;7.57;;;21.00;99.90;;;;;;5118839;27;20829;-48
2023/07/08 01:23:00;;;;;;;10.43;7.57;;;20.90;99.90;;;;;;5117818;27;20413;-48
2023/07/08 01:25:25;;;;;;;8.80;7.47;;;20.80;99.90;;;;;;5136986;27;20316;-47
2023/07/08 01:27:54;;;;;;;9.90;8.13;;;20.80;99.90;;;;;;5137660;27;20179;-50
2023/07/08 01:30:20;;;;;;;9.10;8.20;;;20.70;99.90;;;;;;5119553;27;20535;-48
2023/07/08 01:32:49;;;;;;;9.97;8.67;;;20.70;99.90;;;;;;5119254;27;20433;-47
2023/07/08 01:35:15;;;;;;;9.63;7.83;;;20.60;99.90;;;;;;5138610;27;20267;-51
2023/07/08 01:37:44;;;;;;;11.00;8.80;;;20.50;99.90;;;;;;5119907;27;20425;-52
2023/07/08 01:40:36;;;;;;;10.40;8.60;;;20.50;99.90;;;;;;5120354;27;20428;-48
2023/07/08 01:43:02;;;;;;;8.87;7.53;;;20.50;99.90;;;;;;5139227;27;20427;-51
2023/07/08 01:45:33;;;;;;;9.63;8.73;;;20.40;99.90;;;;;;5120343;27;20523;-52
2023/07/08 01:48:04;;;;;;;10.10;8.67;;;20.30;99.90;;;;;;5137281;27;20431;-47
2023/07/08 01:50:31;;;;;;;10.67;9.30;;;20.30;99.90;;;;;;5137953;27;20409;-48
2023/07/08 01:52:59;;;;;;;10.03;8.90;;;20.20;99.90;;;;;;5119952;27;20439;-46
2023/07/08 01:55:28;;;;;;;10.93;8.73;;;20.20;99.90;;;;;;5120008;27;20468;-46
2023/07/08 01:57:54;;;;;;;10.00;7.47;;;20.20;99.90;;;;;;5137798;27;20594;-50
2023/07/08 02:00:20;;;;;;;10.43;8.37;;;20.20;99.90;;;;;;5138023;27;20853;-46
2023/07/08 02:02:46;;;;;;;9.93;8.83;;;20.10;99.90;;;;;;5136899;27;20312;-48
2023/07/08 02:05:12;;;;;;;9.80;8.80;;;20.10;99.90;;;;;;5118325;27;20428;-51
2023/07/08 02:07:37;;;;;;;9.20;8.20;;;20.10;99.90;;;;;;5136265;27;20443;-45
2023/07/08 02:10:03;;;;;;;9.73;8.00;;;20.00;99.90;;;;;;5136468;27;20202;-49
2023/07/08 02:12:29;;;;;;;8.20;7.27;;;20.00;99.90;;;;;;5122501;27;20179;-47
2023/07/08 02:14:54;;;;;;;8.63;7.73;;;20.00;99.90;;;;;;5122802;27;20955;-47
2023/07/08 02:17:20;;;;;;;11.50;7.73;;;19.90;99.90;;;;;;5116991;28;20244;-48
2023/07/08 02:19:46;;;;;;;8.90;8.00;;;19.90;99.90;;;;;;5117364;28;20179;-46
2023/07/08 02:22:11;;;;;;;10.07;8.50;;;19.90;99.90;;;;;;5116517;28;20469;-49
2023/07/08 02:24:37;;;;;;;11.87;8.90;;;19.80;99.90;;;;;;5117150;28;20384;-50
2023/07/08 02:27:03;;;;;;;10.00;7.77;;;19.80;99.90;;;;;;5116749;28;20180;-47
2023/07/08 02:29:29;;;;;;;9.20;8.13;;;19.80;99.90;;;;;;5117791;28;20180;-45
2023/07/08 02:31:54;;;;;;;8.40;7.50;;;19.80;99.90;;;;;;5117568;28;20422;-45
2023/07/08 02:34:20;;;;;;;8.80;7.80;;;19.80;99.90;;;;;;5116473;28;20465;-47
2023/07/08 02:36:46;;;;;;;10.03;7.93;;;19.80;99.90;;;;;;5117261;28;20261;-50
2023/07/08 02:39:12;;;;;;;10.50;8.37;;;19.90;99.90;;;;;;5115814;28;20191;-50
2023/07/08 02:41:38;;;;;;;9.00;7.80;;;19.80;99.90;;;;;;5095495;28;20450;-50
2023/07/08 02:44:03;;;;;;;10.17;9.00;;;19.70;99.90;;;;;;5110154;28;20191;-49
2023/07/08 02:46:29;;;;;;;8.43;7.50;;;19.60;99.90;;;;;;5116148;28;20720;-49
2023/07/08 02:48:54;;;;;;;10.77;8.67;;;19.50;99.90;;;;;;5115441;28;20191;-51
2023/07/08 02:51:20;;;;;;;10.07;8.27;;;19.40;99.90;;;;;;5115865;28;20175;-47
2023/07/08 02:53:46;;;;;;;8.20;7.40;;;19.40;99.90;;;;;;5115633;28;20254;-46
2023/07/08 02:56:12;;;;;;;10.87;8.60;;;19.40;99.90;;;;;;5116053;28;20171;-51
2023/07/08 02:58:38;;;;;;;9.80;8.33;;;19.40;99.90;;;;;;5115048;28;20426;-50
2023/07/08 03:01:03;;;;;;;10.27;7.77;;;19.40;99.90;;;;;;5116345;28;20190;-48
2023/07/08 03:03:29;;;;;;;9.17;7.90;;;19.50;99.90;;;;;;5116417;28;20266;-49
2023/07/08 03:05:55;;;;;;;10.23;8.60;;;19.50;99.90;;;;;;5114564;28;20259;-49
2023/07/08 03:08:21;;;;;;;9.47;8.03;;;19.50;99.90;;;;;;5115449;28;20434;-46
2023/07/08 03:10:57;;;;;;;9.47;7.97;;;19.50;99.90;;;;;;5116127;28;20417;-48
2023/07/08 03:13:23;;;;;;;8.17;7.33;;;19.50;99.90;;;;;;5117042;28;20183;-46
2023/07/08 03:15:50;;;;;;;9.50;7.73;;;19.40;99.90;;;;;;5117087;28;20418;-48
2023/07/08 03:18:15;;;;;;;7.67;6.87;;;19.40;99.90;;;;;;5115870;28;20421;-46
2023/07/08 03:20:44;;;;;;;12.13;8.03;;;19.40;99.90;;;;;;5116141;28;20653;-46
2023/07/08 03:23:10;;;;;;;11.63;7.47;;;19.40;99.90;;;;;;5116755;28;20345;-47
2023/07/08 03:25:37;;;;;;;8.73;7.57;;;19.40;99.90;;;;;;5130999;28;20568;-47
2023/07/08 03:28:05;;;;;;;9.53;7.90;;;19.50;99.90;;;;;;5136481;28;20424;-48
2023/07/08 03:30:32;;;;;;;9.13;8.20;;;19.50;99.90;;;;;;5136381;28;20867;-45
2023/07/08 03:32:58;;;;;;;8.70;7.13;;;19.50;99.90;;;;;;5135966;28;20447;-45
2023/07/08 03:35:23;;;;;;;10.93;7.80;;;19.50;99.90;;;;;;5117796;28;20524;-49
2023/07/08 03:37:49;;;;;;;10.73;8.40;;;19.50;99.90;;;;;;5136470;28;20187;-51
2023/07/08 03:40:14;;;;;;;9.47;7.40;;;19.50;99.90;;;;;;5136147;28;20278;-49
2023/07/08 03:42:40;;;;;;;9.97;8.00;;;19.60;99.90;;;;;;5137167;28;20198;-45
2023/07/08 03:45:06;;;;;;;10.17;8.30;;;19.50;99.90;;;;;;5117764;28;20179;-48
2023/07/08 03:47:31;;;;;;;8.37;7.57;;;19.60;99.90;;;;;;5136539;27;20555;-47
2023/07/08 03:49:57;;;;;;;8.07;7.27;;;19.60;99.90;;;;;;5136115;28;20499;-46
2023/07/08 03:52:23;;;;;;;9.80;7.30;;;19.60;99.90;;;;;;5135149;28;20194;-50
2023/07/08 03:54:49;;;;;;;10.40;9.10;;;19.70;99.90;;;;;;5135642;28;20225;-46
2023/07/08 03:57:14;;;;;;;10.70;7.70;;;19.70;99.90;;;;;;5136189;28;20840;-49
2023/07/08 03:59:40;;;;;;;8.27;7.47;;;19.80;99.90;;;;;;5134796;28;20279;-47
2023/07/08 04:02:07;;;;;;;9.47;7.73;;;19.90;99.90;;;;;;5134757;28;20226;-48
2023/07/08 04:04:33;;;;;;;10.40;7.50;;;20.00;99.90;;;;;;5116643;28;20187;-50
2023/07/08 04:06:59;;;;;;;9.17;8.00;;;20.00;1.00;;;;;;5134835;28;20531;-51
2023/07/08 04:09:24;;;;;;;7.93;7.13;;;20.10;1.00;;;;;;5134684;28;20601;-53
2023/07/08 04:11:50;;;;;;;9.17;8.07;;;20.20;1.00;;;;;;5137375;27;20190;-48
2023/07/08 04:14:15;;;;;;;9.73;8.70;;;20.30;1.00;;;;;;5138150;27;20255;-52
2023/07/08 04:16:48;;;;;;;8.90;7.83;;;20.30;1.00;;;;;;5139286;27;20239;-52
2023/07/08 04:19:14;;;;;;;8.97;8.00;;;20.30;1.00;;;;;;5122015;27;20175;-49
2023/07/08 04:21:42;;;;;;;10.37;8.90;;;20.30;1.00;;;;;;5140586;27;20431;-49
2023/07/08 04:24:12;;;;;;;8.60;7.63;;;20.40;1.00;;;;;;5140316;27;20439;-49
2023/07/08 04:26:39;;;;;;;9.57;7.77;;;20.40;1.00;;;;;;5139399;27;20408;-50
2023/07/08 04:29:07;;;;;;;10.70;8.03;;;20.40;1.00;;;;;;5140790;27;20465;-51
2023/07/08 04:31:34;;;;;;;11.63;8.37;;;20.40;1.00;;;;;;5121576;27;20444;-49
2023/07/08 04:33:59;;;;;;;9.90;7.53;;;20.40;1.00;;;;;;5138668;27;20475;-52
2023/07/08 04:36:26;;;;;;;8.50;7.47;;;20.40;1.00;;;;;;5138368;27;20183;-49
2023/07/08 04:38:52;;;;;;;9.37;7.50;;;20.40;1.00;;;;;;5138002;27;20202;-48
2023/07/08 04:41:18;;;;;;;9.17;8.17;;;20.40;1.00;;;;;;5138719;27;20456;-50
2023/07/08 04:43:44;;;;;;;10.03;7.93;;;20.50;1.00;;;;;;5138734;27;20543;-48
2023/07/08 04:46:22;;;;;;;9.57;8.20;;;20.70;1.00;;;;;;5137535;27;20500;-51
2023/07/08 04:48:48;;;;;;;8.73;7.87;;;20.80;1.00;;;;;;5102765;27;20445;-50
2023/07/08 04:51:14;;;;;;;10.20;8.50;;;21.00;1.00;;;;;;5138361;27;20766;-51
2023/07/08 04:53:39;;;;;;;8.80;7.90;;;21.10;1.00;;;;;;5138178;27;20235;-48
2023/07/08 04:56:05;;;;;;;10.20;8.53;;;21.20;1.00;;;;;;5120794;27;20684;-48
2023/07/08 04:58:30;;;;;;;10.10;8.30;;;21.30;1.00;;;;;;5139568;27;20186;-48
2023/07/08 05:00:56;;;;;;;9.90;8.70;;;21.30;1.00;;;;;;5139254;27;20222;-48
2023/07/08 05:03:21;;;;;;;8.53;7.47;;;21.30;1.00;;;;;;5138794;27;20184;-50
2023/07/08 05:05:47;;;;;;;10.57;8.80;;;21.30;1.00;;;;;;5137850;27;20530;-49
2023/07/08 05:08:13;;;;;;;9.87;8.53;;;21.40;1.00;;;;;;5138369;27;20163;-50
2023/07/08 05:10:39;;;;;;;8.67;7.77;;;21.30;1.00;;;;;;5118973;27;20190;-47
2023/07/08 05:13:05;;;;;;;8.40;7.50;;;21.40;1.00;;;;;;5138213;27;20191;-50
2023/07/08 05:15:30;;;;;;;9.83;8.30;;;21.40;1.00;;;;;;5138865;27;20472;-51
2023/07/08 05:17:56;;;;;;;9.10;8.23;;;21.60;1.00;;;;;;5137742;27;20569;-51
2023/07/08 05:20:22;;;;;;;10.47;7.90;;;21.60;1.00;;;;;;5120102;27;20175;-50
2023/07/08 05:22:48;;;;;;;10.07;8.77;;;21.80;1.00;;;;;;5137605;27;20203;-52
2023/07/08 05:25:14;;;;;;;10.20;8.07;;;21.90;1.00;;;;;;5103267;27;20480;-46
2023/07/08 05:27:40;;;;;;;10.37;9.13;;;21.90;1.00;;;;;;5138419;27;20400;-48
2023/07/08 05:30:13;;;;;;;8.67;7.77;;;21.90;1.00;;;;;;5137590;27;20416;-50
2023/07/08 05:32:39;;;;;;;10.27;8.70;;;22.00;1.00;;;;;;5137675;27;20492;-50
2023/07/08 05:35:04;;;;;;;9.17;7.53;;;22.10;1.00;;;;;;5137235;27;20464;-49
2023/07/08 05:37:30;;;;;;;8.83;7.97;;;22.20;1.00;;;;;;5137344;27;20174;-54
2023/07/08 05:39:56;;;;;;;9.20;7.90;;;22.20;1.00;;;;;;5137054;27;20183;-51
2023/07/08 05:42:22;;;;;;;9.83;8.53;;;22.30;1.00;;;;;;5136787;27;20182;-49
2023/07/08 05:44:48;;;;;;;11.33;8.93;;;22.40;1.00;;;;;;5136584;27;20852;-51
2023/07/08 05:47:14;;;;;;;10.83;9.20;;;22.40;1.00;;;;;;5137991;27;20743;-49
2023/07/08 05:49:40;;;;;;;11.97;8.50;;;22.50;1.00;;;;;;5137783;27;20501;-50
2023/07/08 05:52:10;;;;;;;9.97;8.97;;;22.50;1.00;;;;;;5138181;27;20425;-51
2023/07/08 05:54:40;;;;;;;9.87;8.40;;;22.50;1.00;;;;;;5138160;27;20293;-50
2023/07/08 05:57:07;;;;;;;9.63;8.63;;;22.50;1.00;;;;;;5137412;27;20744;-50
2023/07/08 05:59:34;;;;;;;10.43;8.23;;;22.50;1.00;;;;;;5119064;27;20500;-48
2023/07/08 06:01:59;;;;;;;9.13;8.00;;;22.60;1.00;;;;;;5138300;27;20448;-50
2023/07/08 06:04:26;;;;;;;9.13;8.23;;;22.60;1.00;;;;;;5138355;27;20424;-48
2023/07/08 06:06:52;;;;;;;8.93;7.60;;;22.70;1.00;;;;;;5137915;27;20454;-50
2023/07/08 06:09:17;;;;;;;12.70;8.20;;;22.80;1.00;;;;;;5138000;27;20440;-51
2023/07/08 06:11:43;;;;;;;10.60;8.10;;;22.80;1.00;;;;;;5136624;27;20201;-49
2023/07/08 06:14:08;;;;;;;11.17;8.20;;;22.90;1.00;;;;;;5135700;27;20209;-52
2023/07/08 06:16:34;;;;;;;9.43;7.73;;;22.90;1.00;;;;;;5136212;27;20250;-53
2023/07/08 06:19:00;;;;;;;10.87;7.93;;;23.00;1.00;;;;;;5136314;27;20555;-51
2023/07/08 06:21:26;;;;;;;8.37;6.77;;;22.90;1.00;;;;;;5136687;27;20427;-50
2023/07/08 06:23:51;;;;;;;8.87;7.40;;;23.00;1.00;;;;;;5137801;27;20198;-49
2023/07/08 06:26:17;;;;;;;8.60;6.63;;;23.10;1.00;;;;;;5136844;27;20240;-50
2023/07/08 06:28:43;;;;;;;8.70;7.50;;;23.10;1.00;;;;;;5117868;27;20628;-49
2023/07/08 06:31:08;;;;;;;8.57;7.70;;;23.10;1.00;;;;;;5136554;27;20248;-52
2023/07/08 06:33:34;;;;;;;8.70;7.80;;;23.10;1.00;;;;;;5136577;27;20247;-52
2023/07/08 06:35:59;;;;;;;9.20;7.63;;;23.10;1.00;;;;;;5137021;27;20187;-53
2023/07/08 06:38:25;;;;;;;8.47;7.50;;;23.20;1.00;;;;;;5135873;27;20182;-46
2023/07/08 06:40:51;;;;;;;12.27;7.20;;;23.30;1.00;;;;;;5137495;27;20692;-50
2023/07/08 06:43:16;;;;;;;9.60;7.20;;;23.30;1.00;;;;;;5138366;27;20179;-49
2023/07/08 06:45:43;;;;;;;9.93;7.30;;;23.40;1.00;;;;;;5137962;27;20254;-49
2023/07/08 06:48:09;;;;;;;9.80;7.17;;;23.40;1.00;;;;;;5136408;27;20194;-50
2023/07/08 06:50:35;;;;;;;9.30;6.40;;;23.40;1.00;;;;;;5135422;27;20438;-49
2023/07/08 06:53:00;;;;;;;9.67;7.00;;;23.40;1.00;;;;;;5135417;27;20202;-52
2023/07/08 06:55:26;;;;;;;8.40;6.80;;;23.40;1.00;;;;;;5116735;27;20744;-46
2023/07/08 06:57:51;;;;;;;8.50;6.57;;;23.40;1.00;;;;;;5134808;27;20179;-52
2023/07/08 07:00:17;;;;;;;8.10;6.87;;;23.40;1.00;;;;;;5134678;27;20592;-50
2023/07/08 07:02:43;;;;;;;8.80;7.87;;;23.50;1.00;;;;;;5134371;27;21712;-49
2023/07/08 07:05:09;;;;;;;9.53;7.20;;;23.40;1.00;;;;;;5133522;27;20171;-52
2023/07/08 07:07:34;;;;;;;8.27;6.63;;;23.40;1.00;;;;;;5133930;27;20439;-51
2023/07/08 07:10:00;;;;;;;8.00;7.20;;;23.50;1.00;;;;;;5134626;27;20190;-49
2023/07/08 07:12:26;;;;;;;9.33;7.17;;;23.60;1.00;;;;;;5134723;27;20672;-48
2023/07/08 07:14:53;;;;;;;7.60;6.70;;;23.70;1.00;;;;;;5135164;27;20222;-50
2023/07/08 07:17:23;;;;;;;8.90;7.67;;;23.80;1.00;;;;;;5134768;27;20544;-49
2023/07/08 07:19:48;;;;;;;8.57;6.87;;;23.90;1.00;;;;;;5136336;27;20413;-48
2023/07/08 07:22:15;;;;;;;9.20;6.87;;;24.00;1.00;;;;;;5136414;27;20497;-49
2023/07/08 07:24:40;;;;;;;7.50;6.73;;;24.20;1.00;;;;;;5134723;28;20242;-49
2023/07/08 07:27:07;;;;;;;8.00;6.50;;;24.40;1.00;;;;;;5136105;28;20451;-50
2023/07/08 07:29:42;;;;;;;9.43;7.07;;;24.30;1.00;;;;;;5117846;27;20485;-53
2023/07/08 07:32:08;;;;;;;7.60;6.00;;;24.40;1.00;;;;;;5120163;28;20497;-52
2023/07/08 07:34:34;;;;;;;8.83;6.40;;;24.30;1.00;;;;;;5114040;28;20589;-52
2023/07/08 07:36:59;;;;;;;8.80;6.00;;;24.40;1.00;;;;;;5112713;28;20494;-50
2023/07/08 07:39:25;;;;;;;8.00;6.90;;;24.40;1.00;;;;;;5114832;28;20259;-52
2023/07/08 07:41:50;;;;;;;8.77;6.10;;;24.50;1.00;;;;;;5117930;28;20269;-49
2023/07/08 07:44:16;;;;;;;6.80;5.63;;;24.40;1.00;;;;;;5115227;28;20182;-48
2023/07/08 07:46:42;;;;;;;6.97;6.20;;;24.30;1.00;;;;;;5120428;28;20191;-49
2023/07/08 07:49:08;;;;;;;7.70;6.43;;;24.30;1.00;;;;;;5101342;28;20187;-48
2023/07/08 07:51:33;;;;;;;7.50;6.57;;;24.40;1.00;;;;;;5123221;27;20429;-51
2023/07/08 07:53:59;;;;;;;8.73;6.23;;;24.60;1.00;;;;;;5132232;27;20215;-51
2023/07/08 07:56:24;;;;;;;8.30;6.60;;;24.70;1.00;;;;;;5139827;27;20528;-49
2023/07/08 07:58:50;;;;;;;5.93;5.33;;;24.80;1.00;;;;;;5139656;27;20179;-52
2023/07/08 08:01:16;;;;;;;8.43;5.80;;;25.00;1.00;;;;;;5140644;27;20187;-49
2023/07/08 08:03:41;;;;;;;6.83;5.57;;;25.10;1.00;;;;;;5121487;27;20255;-48
2023/07/08 08:06:07;;;;;;;8.13;6.20;;;25.00;1.00;;;;;;5138067;27;20190;-48
2023/07/08 08:08:32;;;;;;;9.20;6.40;;;24.90;1.00;;;;;;5137994;27;20603;-51
2023/07/08 08:10:58;;;;;;;8.07;5.40;;;24.80;1.00;;;;;;5137960;27;20163;-50
2023/07/08 08:13:24;;;;;;;7.50;5.50;;;24.90;1.00;;;;;;5138023;27;20175;-48
2023/07/08 08:15:56;;;;;;;6.50;5.60;;;24.90;1.00;;;;;;5138284;27;20175;-49
2023/07/08 08:18:21;;;;;;;5.70;5.13;;;25.00;1.00;;;;;;5119925;27;20187;-48
2023/07/08 08:20:50;;;;;;;6.43;5.63;;;25.20;1.00;;;;;;5137036;27;20431;-46
2023/07/08 08:23:16;;;;;;;8.43;5.80;;;25.60;1.00;;;;;;5137832;27;20175;-47
2023/07/08 08:25:41;;;;;;;6.00;5.00;;;26.00;1.00;;;;;;5137207;27;20491;-47
2023/07/08 08:28:07;;;;;;;5.83;4.90;;;26.30;1.00;;;;;;5136803;27;20476;-49
2023/07/08 08:30:33;;;;;;;6.07;4.63;;;26.60;1.00;;;;;;5134973;27;20633;-51
2023/07/08 08:32:58;;;;;;;6.43;5.10;;;26.90;1.00;;;;;;5133989;27;20336;-45
2023/07/08 08:35:24;;;;;;;7.30;5.37;;;27.20;1.00;;;;;;5115647;27;20309;-47
2023/07/08 08:37:49;;;;;;;5.23;4.73;;;27.20;1.00;;;;;;5136306;27;20198;-50
2023/07/08 08:40:17;;;;;;;5.20;4.70;;;27.40;1.00;;;;;;5136839;27;20189;-49
2023/07/08 08:42:49;;;;;;;5.80;4.10;;;27.80;1.00;;;;;;5137610;27;20187;-51
2023/07/08 08:45:20;;;;;;;6.47;4.70;;;28.20;1.00;;;;;;5135814;27;20743;-53
2023/07/08 08:47:49;;;;;;;5.57;4.50;;;28.30;1.00;;;;;;5119747;27;20429;-52
2023/07/08 08:50:34;;;;;;;5.47;4.87;;;28.50;1.00;;;;;;5115092;28;20778;-50
2023/07/08 08:53:02;;;;;;;4.63;4.07;;;28.80;1.00;;;;;;5115808;28;20461;-53
2023/07/08 08:55:28;;;;;;;4.70;4.20;;;28.90;1.00;;;;;;5117092;27;20747;-51
2023/07/08 08:58:12;;;;;;;6.73;4.63;;;28.70;1.00;;;;;;5117086;27;20429;-48
2023/07/08 09:00:41;;;;;;;4.67;3.80;;;28.70;1.00;;;;;;5116288;27;20443;-52
2023/07/08 09:03:16;;;;;;;5.43;3.87;;;28.90;1.00;;;;;;5135273;27;20460;-50
2023/07/08 09:05:45;;;;;;;6.43;3.90;;;28.90;1.00;;;;;;5119996;27;20387;-47
2023/07/08 09:08:20;;;;;;;4.33;3.93;;;28.90;1.00;;;;;;5118022;27;20705;-53
2023/07/08 09:10:46;;;;;;;5.10;4.60;;;28.60;1.00;;;;;;5120956;27;20500;-52
2023/07/08 09:13:35;;;;;;;5.50;4.63;;;28.30;1.00;;;;;;5137136;27;20420;-52
2023/07/08 09:16:16;;;;;;;5.63;4.70;;;28.00;1.00;;;;;;5135705;27;20447;-51
2023/07/08 09:19:10;;;;;;;7.77;5.20;;;27.60;1.00;;;;;;5118847;27;20535;-52
2023/07/08 09:22:14;;;;;;;3.67;3.30;;;27.50;1.00;;;;;;5100237;27;20805;-49
2023/07/08 09:24:45;;;;;;;3.90;3.50;;;27.60;1.00;;;;;;5134963;27;21111;-50
2023/07/08 09:27:11;;;;;;;4.67;4.27;;;27.90;1.00;;;;;;5133624;27;20556;-54
2023/07/08 09:29:37;;;;;;;3.47;3.17;;;28.00;1.00;;;;;;5132787;27;20474;-51
2023/07/08 09:32:21;;;;;;;4.23;3.83;;;28.20;1.00;;;;;;5135101;27;20183;-52
2023/07/08 09:35:04;;;;;;;4.07;3.40;;;28.30;1.00;;;;;;5135306;27;20308;-51
2023/07/08 09:37:32;;;;;;;4.33;3.63;;;28.80;1.00;;;;;;5134835;27;20440;-49
2023/07/08 09:39:59;;;;;;;3.90;3.20;;;28.80;1.00;;;;;;5134333;27;20435;-47
2023/07/08 09:42:31;;;;;;;4.80;2.90;;;29.20;1.00;;;;;;5135235;27;20420;-49
2023/07/08 09:44:59;;;;;;;4.27;3.33;;;29.50;1.00;;;;;;5118082;27;20822;-52
2023/07/08 09:47:32;;;;;;;3.60;3.20;;;30.00;1.00;;;;;;5134391;27;20515;-48
2023/07/08 09:49:59;;;;;;;5.20;3.70;;;30.40;1.00;;;;;;5119080;27;20515;-51
2023/07/08 09:52:29;;;;;;;4.10;3.80;;;30.80;1.00;;;;;;5118977;27;20727;-53
2023/07/08 09:54:55;;;;;;;4.73;3.83;;;30.60;1.00;;;;;;5136116;27;20472;-46
2023/07/08 09:57:32;;;;;;;5.80;4.43;;;30.40;1.00;;;;;;5136139;27;20501;-48
2023/07/08 10:00:07;;;;;;;4.97;4.47;;;30.10;1.00;;;;;;5134693;27;20410;-51
2023/07/08 10:02:40;;;;;;;5.63;4.20;;;29.60;1.00;;;;;;5116235;27;20416;-50
2023/07/08 10:05:18;;;;;;;5.57;4.13;;;29.30;1.00;;;;;;5134166;27;20409;-50
2023/07/08 10:07:44;;;;;;;7.60;4.87;;;29.30;1.00;;;;;;5137495;27;20864;-48
2023/07/08 10:10:24;;;;;;;6.37;5.70;;;29.50;1.00;;;;;;5136092;27;20433;-50
2023/07/08 10:12:56;;;;;;;5.10;4.50;;;29.80;1.00;;;;;;5116824;27;20428;-50
2023/07/08 10:15:32;;;;;;;5.23;4.70;;;30.00;1.00;;;;;;5114675;27;20570;-51
2023/07/08 10:17:58;;;;;;;6.43;4.40;;;30.20;1.00;;;;;;5131697;27;20799;-50
2023/07/08 10:20:24;;;;;;;4.80;4.40;;;30.50;1.00;;;;;;5131328;27;20417;-50
2023/07/08 10:23:08;;;;;;;6.63;4.17;;;30.70;1.00;;;;;;5111688;27;20183;-53
2023/07/08 10:25:54;;;;;;;4.60;4.20;;;30.90;1.00;;;;;;5112203;27;20445;-48
2023/07/08 10:28:37;;;;;;;5.30;3.77;;;31.20;1.00;;;;;;5131459;27;20583;-50
2023/07/08 10:31:17;;;;;;;4.67;3.90;;;31.80;1.00;;;;;;5108419;27;20536;-46
2023/07/08 10:33:52;;;;;;;4.93;4.43;;;32.10;1.00;;;;;;5108017;28;20482;-47
2023/07/08 10:36:25;;;;;;;6.83;4.70;;;32.20;1.00;;;;;;5108711;28;20815;-48
2023/07/08 10:39:21;;;;;;;5.87;4.50;;;32.40;1.00;;;;;;5109818;28;20491;-48
2023/07/08 10:42:32;;;;;;;4.23;3.83;;;32.90;1.00;;;;;;5110459;28;20683;-50
2023/07/08 10:45:12;;;;;;;6.33;4.50;;;33.40;1.00;;;;;;5111876;28;20848;-47
2023/07/08 10:47:54;;;;;;;5.00;4.50;;;33.20;1.00;;;;;;5110681;28;20482;-48
2023/07/08 10:50:45;;;;;;;5.07;4.30;;;32.80;1.00;;;;;;5111829;28;20454;-47
2023/07/08 10:53:46;;;;;;;7.50;4.40;;;32.90;1.00;;;;;;5110714;28;20425;-48
2023/07/08 10:56:21;;;;;;;5.53;4.50;;;32.90;1.00;;;;;;5109336;28;20473;-48
2023/07/08 10:59:13;;;;;;;5.63;4.90;;;33.00;1.00;;;;;;5092523;28;20409;-47
2023/07/08 11:01:57;;;;;;;5.73;4.20;;;33.00;1.00;;;;;;5112837;28;20402;-49
2023/07/08 11:04:54;;;;;;;3.97;3.60;;;32.90;1.00;;;;;;5110228;28;20456;-46
2023/07/08 11:07:33;;;;;;;6.43;3.93;;;32.90;1.00;;;;;;5109149;28;20388;-47
2023/07/08 11:10:05;;;;;;;5.50;4.67;;;32.80;1.00;;;;;;5103749;28;20469;-49
2023/07/08 11:13:03;;;;;;;5.90;3.97;;;33.00;1.00;;;;;;5106118;28;20428;-50
2023/07/08 11:15:41;;;;;;;3.97;3.60;;;33.50;1.00;;;;;;5106456;28;20412;-49
2023/07/08 11:18:20;;;;;;;4.73;4.17;;;33.70;1.00;;;;;;5107298;28;20944;-50
2023/07/08 11:21:02;;;;;;;5.23;4.47;;;33.80;1.00;;;;;;5105522;28;20396;-53
2023/07/08 11:23:43;;;;;;;4.50;3.97;;;34.00;1.00;;;;;;5104839;28;20693;-51
2023/07/08 11:26:18;;;;;;;6.50;3.70;;;33.70;1.00;;;;;;5108478;28;20392;-50
2023/07/08 11:28:44;;;;;;;4.07;3.60;;;33.70;1.00;;;;;;5107884;28;20454;-48
2023/07/08 11:31:11;;;;;;;4.70;4.10;;;33.30;1.00;;;;;;5108701;28;20469;-48
2023/07/08 11:33:38;;;;;;;4.10;3.70;;;33.20;1.00;;;;;;5109638;28;20416;-51
2023/07/08 11:36:05;;;;;;;4.40;3.83;;;33.20;1.00;;;;;;5110085;28;20683;-43
2023/07/08 11:38:33;;;;;;;4.73;3.57;;;33.00;1.00;;;;;;5110279;28;20433;-44
2023/07/08 11:41:04;;;;;;;4.67;4.17;;;33.20;1.00;;;;;;5104638;28;20792;-43
2023/07/08 11:43:45;;;;;;;7.47;3.80;;;33.40;1.00;;;;;;5096769;28;20435;-50
2023/07/08 11:46:15;;;;;;;4.70;4.00;;;34.20;1.00;;;;;;5096844;28;20385;-44
2023/07/08 11:48:48;;;;;;;5.10;4.03;;;34.70;1.00;;;;;;5095342;28;20745;-43
2023/07/08 11:51:22;;;;;;;5.13;2.93;;;35.10;1.00;;;;;;5096405;28;20417;-46
2023/07/08 11:53:50;;;;;;;4.80;3.87;;;34.50;1.00;;;;;;5096204;28;20782;-49
2023/07/08 11:56:15;;;;;;;4.00;3.60;;;34.50;1.00;;;;;;5095841;28;20808;-44
2023/07/08 11:58:47;;;;;;;3.53;3.23;;;35.00;1.00;;;;;;5097070;28;20408;-42
2023/07/08 12:01:13;;;;;;;4.97;4.37;;;35.70;1.00;;;;;;5096876;28;20177;-43
2023/07/08 12:03:41;;;;;;;5.87;3.50;;;36.10;1.00;;;;;;5096497;28;20451;-43
2023/07/08 12:06:25;;;;;;;4.00;3.60;;;36.40;1.00;;;;;;5093640;28;20192;-43
2023/07/08 12:08:56;;;;;;;3.73;2.90;;;36.40;1.00;;;;;;5095143;28;20659;-44
2023/07/08 12:11:32;;;;;;;3.70;2.77;;;35.80;1.00;;;;;;5095674;28;20707;-41
2023/07/08 12:14:02;;;;;;;3.43;2.40;;;35.20;1.00;;;;;;5096369;28;20428;-45
2023/07/08 12:16:30;;;;;;;4.00;2.97;;;34.60;1.00;;;;;;5095706;28;20472;-42
2023/07/08 12:18:56;;;;;;;4.30;3.20;;;34.50;1.00;;;;;;5094366;28;20835;-48
2023/07/08 12:21:23;;;;;;;2.87;2.60;;;34.20;1.00;;;;;;5095090;28;20714;-44
2023/07/08 12:23:49;;;;;;;3.87;2.90;;;34.00;1.00;;;;;;5095644;28;20458;-44
2023/07/08 12:26:15;;;;;;;3.63;2.80;;;34.40;1.00;;;;;;5095636;28;20465;-44
2023/07/08 12:28:42;;;;;;;4.87;2.90;;;34.90;1.00;;;;;;5094988;28;20268;-47
2023/07/08 12:31:16;;;;;;;4.30;2.70;;;35.80;1.00;;;;;;5093613;28;20706;-46
2023/07/08 12:33:42;;;;;;;3.10;2.80;;;36.70;1.00;;;;;;5097101;28;20420;-43
2023/07/08 12:36:11;;;;;;;3.73;3.30;;;36.90;1.00;;;;;;5097005;28;20438;-41
2023/07/08 12:38:41;;;;;;;3.07;2.77;;;37.00;1.00;;;;;;5095584;28;20176;-43
2023/07/08 12:41:20;;;;;;;3.10;2.37;;;37.30;1.00;;;;;;5097411;28;20434;-43
2023/07/08 12:43:46;;;;;;;3.40;3.00;;;38.00;1.00;;;;;;5096465;28;20432;-47
2023/07/08 12:46:13;;;;;;;4.93;2.37;;;38.00;1.00;;;;;;5076750;28;20567;-43
2023/07/08 12:48:40;;;;;;;2.90;2.60;;;37.40;1.00;;;;;;5094447;28;20405;-42
2023/07/08 12:51:10;;;;;;;4.13;3.20;;;37.30;1.00;;;;;;5094693;28;20676;-44
2023/07/08 12:53:36;;;;;;;2.90;2.60;;;37.40;1.00;;;;;;5092557;28;20458;-43
2023/07/08 12:56:02;;;;;;;3.70;2.90;;;36.50;1.00;;;;;;5094601;28;20854;-42
2023/07/08 12:58:31;;;;;;;3.40;2.43;;;36.20;1.00;;;;;;5094869;28;20168;-48
2023/07/08 13:00:58;;;;;;;5.10;2.67;;;36.40;1.00;;;;;;5092073;28;20588;-43
2023/07/08 13:03:27;;;;;;;3.63;3.10;;;36.50;1.00;;;;;;5090514;28;20422;-42